Coupeville, WA (98239)

2:39 PM PDT on September 03, 2015 (GMT -0700)
Coupeville | | Change Station
CLOSE
Current Station
Personal Weather Station
Location: Coupeville, WA
Elevation: 95 ft
Nearby Weather Stations

Elev 95 ft 48.22 °N, 122.69 °W | Updated 7 seconds ago

Overcast
Overcast
64.5 °F
Feels Like 64.5 °F
N
6.9
Wind Variable Wind from SSW
Gusts 6.9 mph

Today
High -- | Low -- °F
--% Chance of Precip.
Yesterday
High -- | Low -- °F
Precip. -- in
6:30 AM 7:47 PM
Waning Gibbous, 66% visible
Pressure 30.04 in
Visibility 10.0 miles
Clouds Scattered Clouds 3200 ft
Mostly Cloudy 5000 ft
Mostly Cloudy 7500 ft
Mostly Cloudy 19000 ft
Dew Point 49 °F
Humidity 57%
Rainfall 0.00 in
Snow Depth Not available.
UV 4 out of 12
Pollen .50 out of 12
Air Quality Not available.
Flu Activity Not available.
METAR KNUW 032056Z 33006KT 10SM SCT032 BKN050 BKN075 BKN190 14/11 A3003 RMK AO2 SLP170 CB DSNT SW AND NW 60000 T01440106 56005
Pressure 30.04 in
Visibility 10.0 miles
Clouds Scattered Clouds 3200 ft
Mostly Cloudy 5000 ft
Mostly Cloudy 7500 ft
Mostly Cloudy 19000 ft
Dew Point 49 °F
Humidity 57%
Rainfall 0.00 in
Snow Depth Not available.
UV 4 out of 12
Pollen .50 out of 12
Air Quality Not available.
Flu Activity Not available.
METAR KNUW 032056Z 33006KT 10SM SCT032 BKN050 BKN075 BKN190 14/11 A3003 RMK AO2 SLP170 CB DSNT SW AND NW 60000 T01440106 56005

10-Day Weather Forecast

×

Almanac

Astronomy

Sep. 03, 2015 Rise Set
Actual Time
Civil Twilight
Nautical Twilight
Astronomical Twilight
Moon
Length of Visible Light
Length of Day
Tomorrow will be .
, % of the Moon is Illuminated

Today's Extremes

State Highs State Lows

Community

WunderPhotos

Upload Photos

1,852,043 photos uploaded!

WunderBlogs® & News

Nearby

Air Quality

  Air Quality AQ Index Pollutant
Not available.

Snow Depth

Station Depth Elevation

Earthquake Activity

City Distance Mag. Time & Date
Minimum magnitude displayed is 2.5.

Coastal Water Temperatures

Place Temperature

Stations

Nearby Weather Stations

Station Location Temp. Windchill Dew Point Humidity Wind Precip. Elev Updated Type